createdAt,value
2023-04-27T00:00:05.226Z,20.7
2023-04-27T00:01:21.348Z,20.7
2023-04-27T00:02:37.640Z,20.7
2023-04-27T00:03:52.792Z,20.7
2023-04-27T00:05:08.930Z,20.7
2023-04-27T00:06:25.062Z,20.7
2023-04-27T00:07:41.192Z,20.7
2023-04-27T00:08:57.331Z,20.7
2023-04-27T00:10:13.461Z,20.7
2023-04-27T00:11:29.614Z,20.6
2023-04-27T00:12:45.752Z,20.7
2023-04-27T00:14:01.871Z,20.7
2023-04-27T00:15:18.018Z,20.6
2023-04-27T00:16:34.145Z,20.6
2023-04-27T00:17:50.297Z,20.6
2023-04-27T00:19:06.419Z,20.6
2023-04-27T00:20:22.676Z,20.6
2023-04-27T00:21:38.824Z,20.6
2023-04-27T00:22:54.941Z,20.6
2023-04-27T00:24:11.090Z,20.6
2023-04-27T00:25:27.239Z,20.6
2023-04-27T00:26:43.370Z,20.6
2023-04-27T00:27:59.506Z,20.6
2023-04-27T00:29:15.631Z,20.6
2023-04-27T00:30:31.777Z,20.6
2023-04-27T00:31:47.000Z,20.6
2023-04-27T00:33:04.189Z,20.6
2023-04-27T00:34:19.347Z,20.6
2023-04-27T00:35:35.499Z,20.6
2023-04-27T00:36:51.614Z,20.6
2023-04-27T00:38:07.759Z,20.6
2023-04-27T00:39:23.898Z,20.6
2023-04-27T00:40:40.030Z,20.6
2023-04-27T00:41:56.168Z,20.6
2023-04-27T00:43:12.308Z,20.6
2023-04-27T00:44:28.433Z,20.6
2023-04-27T00:45:44.572Z,20.6
2023-04-27T00:47:00.703Z,20.6
2023-04-27T00:48:16.841Z,20.6
2023-04-27T00:49:32.978Z,20.6
2023-04-27T00:50:49.237Z,20.6
2023-04-27T00:52:05.377Z,20.6
2023-04-27T00:53:21.496Z,20.6
2023-04-27T00:54:37.661Z,20.6
2023-04-27T00:55:53.781Z,20.6
2023-04-27T00:57:09.924Z,20.6
2023-04-27T00:59:42.187Z,20.6
2023-04-27T01:00:58.340Z,20.6
2023-04-27T01:02:14.461Z,20.6
2023-04-27T01:03:30.607Z,20.6
2023-04-27T01:04:46.722Z,20.6
2023-04-27T01:06:02.856Z,20.6
2023-04-27T01:07:19.010Z,20.5
2023-04-27T01:08:35.259Z,20.5
2023-04-27T01:09:51.391Z,20.6
2023-04-27T01:11:07.539Z,20.5
2023-04-27T01:12:23.663Z,20.6
2023-04-27T01:13:39.809Z,20.6
2023-04-27T01:14:55.955Z,20.5
2023-04-27T01:16:12.081Z,20.5
2023-04-27T01:17:28.213Z,20.5
2023-04-27T01:18:44.340Z,20.5
2023-04-27T01:20:00.494Z,20.6
2023-04-27T01:21:16.624Z,20.6
2023-04-27T01:22:32.767Z,20.6
2023-04-27T01:23:48.885Z,20.6
2023-04-27T01:25:05.035Z,20.6
2023-04-27T01:26:21.165Z,20.6
2023-04-27T01:27:37.302Z,20.6
2023-04-27T01:28:53.567Z,20.6
2023-04-27T01:30:09.705Z,20.6
2023-04-27T01:31:25.830Z,20.6
2023-04-27T01:32:41.982Z,20.5
2023-04-27T01:33:58.103Z,20.6
2023-04-27T01:35:14.240Z,20.6
2023-04-27T01:36:30.376Z,20.6
2023-04-27T01:37:46.515Z,20.5
2023-04-27T01:39:02.650Z,20.5
2023-04-27T01:40:18.799Z,20.5
2023-04-27T01:41:34.920Z,20.5
2023-04-27T01:42:51.058Z,20.5
2023-04-27T01:44:07.194Z,20.5
2023-04-27T01:45:23.338Z,20.5
2023-04-27T01:46:39.597Z,20.5
2023-04-27T01:47:55.719Z,20.5
2023-04-27T01:49:11.857Z,20.5
2023-04-27T01:51:44.135Z,20.5
2023-04-27T01:53:00.264Z,20.5
2023-04-27T01:54:16.397Z,20.5
2023-04-27T01:55:32.534Z,20.5
2023-04-27T01:56:48.674Z,20.5
2023-04-27T01:58:04.827Z,20.5
2023-04-27T01:59:20.954Z,20.5
2023-04-27T02:00:37.083Z,20.5
2023-04-27T02:01:53.225Z,20.5
2023-04-27T02:03:09.340Z,20.5
2023-04-27T02:04:25.489Z,20.5
2023-04-27T02:05:41.625Z,20.5
2023-04-27T02:06:57.891Z,20.5
2023-04-27T02:08:14.031Z,20.5
2023-04-27T02:09:30.159Z,20.5
2023-04-27T02:10:46.302Z,20.5
2023-04-27T02:12:02.442Z,20.5
2023-04-27T02:13:18.569Z,20.5
2023-04-27T02:14:34.706Z,20.5
2023-04-27T02:15:50.848Z,20.5
2023-04-27T02:17:06.978Z,20.5
2023-04-27T02:18:23.118Z,20.5
2023-04-27T02:19:39.255Z,20.5
2023-04-27T02:20:55.393Z,20.5
2023-04-27T02:22:11.517Z,20.4
2023-04-27T02:23:27.660Z,20.4
2023-04-27T02:24:43.914Z,20.5
2023-04-27T02:26:00.053Z,20.5
2023-04-27T02:27:16.189Z,20.5
2023-04-27T02:28:32.328Z,20.5
2023-04-27T02:29:48.476Z,20.5
2023-04-27T02:31:04.604Z,20.5
2023-04-27T02:32:20.728Z,20.5
2023-04-27T02:33:36.866Z,20.5
2023-04-27T02:34:52.998Z,20.5
2023-04-27T02:36:09.146Z,20.5
2023-04-27T02:37:25.291Z,20.5
2023-04-27T02:38:41.408Z,20.5
2023-04-27T02:39:57.550Z,20.5
2023-04-27T02:41:13.678Z,20.5
2023-04-27T02:42:29.833Z,20.5
2023-04-27T02:43:45.967Z,20.5
2023-04-27T02:45:02.215Z,20.5
2023-04-27T02:46:18.347Z,20.5
2023-04-27T02:47:34.479Z,20.5
2023-04-27T02:48:50.633Z,20.5
2023-04-27T02:50:06.765Z,20.5
2023-04-27T02:51:22.904Z,20.5
2023-04-27T02:52:39.037Z,20.5
2023-04-27T02:53:55.172Z,20.5
2023-04-27T02:55:11.309Z,20.5
2023-04-27T02:56:27.444Z,20.5
2023-04-27T02:57:43.576Z,20.5
2023-04-27T02:58:59.721Z,20.5
2023-04-27T03:00:15.845Z,20.5
2023-04-27T03:01:31.998Z,20.5
2023-04-27T03:02:48.239Z,20.5
2023-04-27T03:04:04.390Z,20.5
2023-04-27T03:05:20.508Z,20.5
2023-04-27T03:06:36.657Z,20.5
2023-04-27T03:07:52.800Z,20.5
2023-04-27T03:09:08.929Z,20.5
2023-04-27T03:10:25.065Z,20.5
2023-04-27T03:11:41.203Z,20.5
2023-04-27T03:12:57.331Z,20.5
2023-04-27T03:14:13.472Z,20.5
2023-04-27T03:15:29.606Z,20.5
2023-04-27T03:16:45.749Z,20.5
2023-04-27T03:18:01.879Z,20.5
2023-04-27T03:19:18.004Z,20.5
2023-04-27T03:20:34.159Z,20.5
2023-04-27T03:21:50.285Z,20.5
2023-04-27T03:23:06.537Z,20.5
2023-04-27T03:24:22.672Z,20.5
2023-04-27T03:25:38.808Z,20.5
2023-04-27T03:26:54.958Z,20.5
2023-04-27T03:28:11.091Z,20.5
2023-04-27T03:29:27.231Z,20.5
2023-04-27T03:30:43.363Z,20.5
2023-04-27T03:31:59.483Z,20.5
2023-04-27T03:33:15.634Z,20.5
2023-04-27T03:34:31.775Z,20.5
2023-04-27T03:35:47.909Z,20.5
2023-04-27T03:37:04.047Z,20.5
2023-04-27T03:38:20.171Z,20.5
2023-04-27T03:39:36.324Z,20.5
2023-04-27T03:40:52.578Z,20.5
2023-04-27T03:42:08.713Z,20.5
2023-04-27T03:43:24.841Z,20.5
2023-04-27T03:44:40.978Z,20.5
2023-04-27T03:45:57.122Z,20.5
2023-04-27T03:47:13.258Z,20.5
2023-04-27T03:48:29.379Z,20.5
2023-04-27T03:49:45.517Z,20.5
2023-04-27T03:51:01.644Z,20.5
2023-04-27T03:52:17.805Z,20.4
2023-04-27T03:53:33.944Z,20.4
2023-04-27T03:54:50.062Z,20.4
2023-04-27T03:56:06.193Z,20.4
2023-04-27T03:57:22.340Z,20.4
2023-04-27T03:58:38.471Z,20.5
2023-04-27T03:59:54.605Z,20.4
2023-04-27T04:01:10.863Z,20.4
2023-04-27T04:02:26.998Z,20.4
2023-04-27T04:03:43.140Z,20.4
2023-04-27T04:04:59.284Z,20.4
2023-04-27T04:06:15.408Z,20.4
2023-04-27T04:07:31.554Z,20.4
2023-04-27T04:08:47.683Z,20.4
2023-04-27T04:10:03.821Z,20.4
2023-04-27T04:11:19.969Z,20.4
2023-04-27T04:12:36.090Z,20.5
2023-04-27T04:13:52.233Z,20.5
2023-04-27T04:15:08.359Z,20.5
2023-04-27T04:16:24.492Z,20.5
2023-04-27T04:17:40.651Z,20.5
2023-04-27T04:18:56.909Z,20.5
2023-04-27T04:20:13.038Z,20.5
2023-04-27T04:21:29.162Z,20.5
2023-04-27T04:22:45.301Z,20.5
2023-04-27T04:24:01.453Z,20.5
2023-04-27T04:25:17.588Z,20.5
2023-04-27T04:26:33.713Z,20.5
2023-04-27T04:27:49.842Z,20.5
2023-04-27T04:29:05.977Z,20.5
2023-04-27T04:30:22.127Z,20.5
2023-04-27T04:31:38.262Z,20.5
2023-04-27T04:32:54.396Z,20.5
2023-04-27T04:34:10.528Z,20.5
2023-04-27T04:35:26.673Z,20.6
2023-04-27T04:36:42.799Z,20.6
2023-04-27T04:37:58.942Z,20.6
2023-04-27T04:39:15.203Z,20.6
2023-04-27T04:40:31.337Z,20.7
2023-04-27T04:41:47.467Z,20.7
2023-04-27T04:43:03.614Z,20.7
2023-04-27T04:44:19.736Z,20.7
2023-04-27T04:45:35.880Z,20.7
2023-04-27T04:46:52.016Z,20.7
2023-04-27T04:48:08.139Z,20.7
2023-04-27T04:49:24.289Z,20.7
2023-04-27T04:50:40.413Z,20.7
2023-04-27T04:51:56.552Z,20.8
2023-04-27T04:53:12.690Z,20.7
2023-04-27T04:54:28.815Z,20.7
2023-04-27T04:55:44.967Z,20.7
2023-04-27T04:57:01.229Z,20.8
2023-04-27T04:58:17.356Z,20.8
2023-04-27T04:59:33.490Z,20.8
2023-04-27T05:00:49.632Z,20.7
2023-04-27T05:02:05.763Z,20.7
2023-04-27T05:03:21.909Z,20.7
2023-04-27T05:04:38.038Z,20.7
2023-04-27T05:05:54.163Z,20.7
2023-04-27T05:07:10.302Z,20.7
2023-04-27T05:08:26.444Z,20.7
2023-04-27T05:09:42.577Z,20.7
2023-04-27T05:10:58.715Z,20.7
2023-04-27T05:12:14.852Z,20.7
2023-04-27T05:13:30.988Z,20.7
2023-04-27T05:14:47.134Z,20.7
2023-04-27T05:16:03.274Z,20.7
2023-04-27T05:17:19.517Z,20.7
2023-04-27T05:18:35.651Z,20.7
2023-04-27T05:19:51.795Z,20.7
2023-04-27T05:21:07.938Z,20.7
2023-04-27T05:22:24.075Z,20.7
2023-04-27T05:23:40.214Z,20.7
2023-04-27T05:24:56.339Z,20.7
2023-04-27T05:26:12.466Z,20.7
2023-04-27T05:27:28.628Z,20.7
2023-04-27T05:28:44.749Z,20.8
2023-04-27T05:30:00.886Z,20.8
2023-04-27T05:31:17.018Z,20.8
2023-04-27T05:32:33.145Z,20.8
2023-04-27T05:33:49.300Z,20.8
2023-04-27T05:35:05.556Z,20.8
2023-04-27T05:36:21.695Z,20.9
2023-04-27T05:37:37.816Z,20.9
2023-04-27T05:38:53.954Z,20.9
2023-04-27T05:40:10.098Z,21
2023-04-27T05:41:26.231Z,21
2023-04-27T05:42:42.360Z,21
2023-04-27T05:43:58.500Z,21.1
2023-04-27T05:45:14.629Z,21.1
2023-04-27T05:46:30.776Z,21.1
2023-04-27T05:47:46.912Z,21.2
2023-04-27T05:49:03.045Z,21.2
2023-04-27T05:50:19.183Z,21.2
2023-04-27T05:51:35.317Z,21.2
2023-04-27T05:54:07.589Z,21.2
2023-04-27T05:55:23.852Z,21.2
2023-04-27T05:56:39.983Z,21.3
2023-04-27T05:57:56.125Z,21.3
2023-04-27T05:59:12.271Z,21.3
2023-04-27T06:00:28.405Z,21.4
2023-04-27T06:01:44.524Z,21.4
2023-04-27T06:03:00.674Z,21.4
2023-04-27T06:04:16.803Z,21.4
2023-04-27T06:05:32.945Z,21.5
2023-04-27T06:06:49.076Z,21.5
2023-04-27T06:08:05.217Z,21.5
2023-04-27T06:09:21.344Z,21.6
2023-04-27T06:10:37.471Z,21.6
2023-04-27T06:11:53.634Z,21.6
2023-04-27T06:13:09.875Z,21.7
2023-04-27T06:14:26.010Z,21.7
2023-04-27T06:15:42.160Z,21.7
2023-04-27T06:16:58.291Z,21.7
2023-04-27T06:18:14.423Z,21.8
2023-04-27T06:19:30.566Z,21.8
2023-04-27T06:20:46.702Z,21.8
2023-04-27T06:22:02.837Z,21.9
2023-04-27T06:23:19.087Z,21.9
2023-04-27T06:24:35.239Z,21.9
2023-04-27T06:25:51.364Z,22
2023-04-27T06:27:07.492Z,22
2023-04-27T06:28:23.634Z,22.1
2023-04-27T06:29:39.763Z,22.1
2023-04-27T06:30:55.922Z,22.2
2023-04-27T06:32:12.052Z,22.2
2023-04-27T06:33:28.187Z,22.3
2023-04-27T06:34:44.317Z,22.3
2023-04-27T06:36:00.444Z,22.4
2023-04-27T06:37:16.590Z,22.5
2023-04-27T06:38:32.728Z,22.5
2023-04-27T06:39:48.858Z,22.5
2023-04-27T06:41:05.116Z,22.5
2023-04-27T06:42:21.261Z,22.6
2023-04-27T06:43:37.401Z,22.6
2023-04-27T06:44:53.535Z,22.6
2023-04-27T06:46:09.678Z,22.6
2023-04-27T06:47:25.814Z,22.7
2023-04-27T06:48:41.935Z,22.8
2023-04-27T06:49:58.094Z,22.8
2023-04-27T06:51:14.210Z,22.9
2023-04-27T06:52:30.347Z,23
2023-04-27T06:53:46.478Z,23
2023-04-27T06:55:02.619Z,23.1
2023-04-27T06:56:18.770Z,23.1
2023-04-27T06:57:34.903Z,23.1
2023-04-27T06:58:51.163Z,23.2
2023-04-27T07:00:07.277Z,23.2
2023-04-27T07:01:23.422Z,23.2
2023-04-27T07:02:39.578Z,23.2
2023-04-27T07:03:55.699Z,23.2
2023-04-27T07:05:11.844Z,23.2
2023-04-27T07:06:27.976Z,23.3
2023-04-27T07:07:44.094Z,23.3
2023-04-27T07:09:00.251Z,23.3
2023-04-27T07:10:16.384Z,23.3
2023-04-27T07:12:48.643Z,23.4
2023-04-27T07:14:04.781Z,23.4
2023-04-27T07:15:20.929Z,23.4
2023-04-27T07:16:37.196Z,23.4
2023-04-27T07:17:53.329Z,23.5
2023-04-27T07:19:09.458Z,23.5
2023-04-27T07:20:25.582Z,23.5
2023-04-27T07:21:41.730Z,23.6
2023-04-27T07:22:57.860Z,23.7
2023-04-27T07:24:14.006Z,23.7
2023-04-27T07:25:30.128Z,24
2023-04-27T07:26:46.269Z,24.4
2023-04-27T07:28:02.413Z,24.9
2023-04-27T07:29:18.548Z,25.6
2023-04-27T07:30:34.687Z,26.2
2023-04-27T07:31:50.818Z,26.6
2023-04-27T07:33:06.947Z,27
2023-04-27T07:34:23.104Z,27.3
2023-04-27T07:35:39.221Z,27.6
2023-04-27T07:36:55.488Z,27.9
2023-04-27T07:38:11.625Z,28.2
2023-04-27T07:39:27.745Z,28.4
2023-04-27T07:40:43.893Z,28.7
2023-04-27T07:42:00.037Z,29
2023-04-27T07:43:16.178Z,29.2
2023-04-27T07:44:32.297Z,29.3
2023-04-27T07:45:48.428Z,29.2
2023-04-27T07:47:04.579Z,29.2
2023-04-27T07:48:20.718Z,29.5
2023-04-27T07:49:36.858Z,29.3
2023-04-27T07:50:52.978Z,28.7
2023-04-27T07:52:09.117Z,29.1
2023-04-27T07:53:25.267Z,29.4
2023-04-27T07:54:41.518Z,29.6
2023-04-27T07:55:57.651Z,29.9
2023-04-27T07:57:13.794Z,30
2023-04-27T07:58:29.916Z,30.2
2023-04-27T07:59:46.063Z,30.4
2023-04-27T08:01:02.202Z,30.5
2023-04-27T08:02:18.344Z,30.7
2023-04-27T08:03:34.466Z,30.8
2023-04-27T08:04:50.611Z,31
2023-04-27T08:06:06.762Z,31
2023-04-27T08:07:22.892Z,31.2
2023-04-27T08:08:39.013Z,31.3
2023-04-27T08:09:55.159Z,31.4
2023-04-27T08:11:11.287Z,31.5
2023-04-27T08:12:27.442Z,31.6
2023-04-27T08:13:43.563Z,31.7
2023-04-27T08:14:59.830Z,31.9
2023-04-27T08:16:15.958Z,32
2023-04-27T08:17:32.092Z,32.1
2023-04-27T08:18:48.250Z,32.2
2023-04-27T08:20:04.380Z,31.9
2023-04-27T08:21:20.517Z,31.4
2023-04-27T08:22:36.650Z,30.7
2023-04-27T08:23:52.786Z,30.1
2023-04-27T08:25:08.921Z,29.7
2023-04-27T08:26:25.067Z,29.3
2023-04-27T08:27:41.200Z,29.9
2023-04-27T08:28:57.338Z,30.5
2023-04-27T08:30:13.456Z,31
2023-04-27T08:31:29.621Z,31.4
2023-04-27T08:32:45.874Z,31.8
2023-04-27T08:34:02.002Z,31.5
2023-04-27T08:35:18.128Z,30.9
2023-04-27T08:36:34.278Z,30.3
2023-04-27T08:37:50.428Z,29.9
2023-04-27T08:39:06.561Z,29.4
2023-04-27T08:40:22.681Z,29.1
2023-04-27T08:41:38.812Z,28.8
2023-04-27T08:42:54.947Z,28.5
2023-04-27T08:44:11.095Z,29
2023-04-27T08:45:27.229Z,29.7
2023-04-27T08:46:43.366Z,30.4
2023-04-27T08:47:59.513Z,31.1
2023-04-27T08:49:15.636Z,31.4
2023-04-27T08:50:31.792Z,30.9
2023-04-27T08:51:47.912Z,31
2023-04-27T08:53:04.170Z,30.8
2023-04-27T08:54:20.319Z,30.5
2023-04-27T08:55:36.452Z,30.1
2023-04-27T08:56:52.601Z,29.7
2023-04-27T08:58:08.720Z,29.4
2023-04-27T08:59:24.872Z,29.1
2023-04-27T09:00:41.003Z,28.8
2023-04-27T09:01:57.123Z,28.6
2023-04-27T09:03:13.282Z,28.7
2023-04-27T09:04:29.422Z,29.6
2023-04-27T09:05:45.558Z,30.3
2023-04-27T09:07:01.676Z,30.9
2023-04-27T09:08:17.824Z,31.5
2023-04-27T09:09:33.973Z,31.9
2023-04-27T09:10:50.224Z,32.3
2023-04-27T09:12:06.363Z,32.7
2023-04-27T09:13:22.495Z,33.1
2023-04-27T09:14:38.623Z,33.4
2023-04-27T09:15:54.768Z,33.5
2023-04-27T09:17:10.895Z,33.6
2023-04-27T09:18:27.045Z,33.8
2023-04-27T09:19:43.165Z,34
2023-04-27T09:20:59.298Z,34.1
2023-04-27T09:22:15.449Z,34.2
2023-04-27T09:23:31.583Z,34.3
2023-04-27T09:24:47.731Z,34.4
2023-04-27T09:26:03.865Z,34.5
2023-04-27T09:27:19.984Z,34.5
2023-04-27T09:28:36.136Z,34.5
2023-04-27T09:29:52.279Z,34.5
2023-04-27T09:31:08.533Z,34.6
2023-04-27T09:32:24.666Z,34.6
2023-04-27T09:33:40.806Z,34.6
2023-04-27T09:34:56.950Z,34.5
2023-04-27T09:36:13.079Z,34.5
2023-04-27T09:37:29.223Z,34.5
2023-04-27T09:38:45.357Z,34.6
2023-04-27T09:40:01.496Z,34.6
2023-04-27T09:41:17.640Z,34.7
2023-04-27T09:42:33.767Z,34.8
2023-04-27T09:43:49.900Z,34.5
2023-04-27T09:45:06.039Z,33.5
2023-04-27T09:46:22.180Z,33.4
2023-04-27T09:47:38.328Z,32.9
2023-04-27T09:48:54.578Z,32.7
2023-04-27T09:50:10.721Z,33.2
2023-04-27T09:51:26.849Z,33.6
2023-04-27T09:52:42.992Z,33.9
2023-04-27T09:53:59.142Z,34.2
2023-04-27T09:55:15.262Z,34.3
2023-04-27T09:56:31.415Z,34.5
2023-04-27T09:57:47.545Z,34.7
2023-04-27T09:59:03.676Z,34.9
2023-04-27T10:00:19.815Z,35
2023-04-27T10:01:35.949Z,35.1
2023-04-27T10:02:52.099Z,35.2
2023-04-27T10:04:08.230Z,35.4
2023-04-27T10:05:24.372Z,34.8
2023-04-27T10:06:40.521Z,33.8
2023-04-27T10:07:56.651Z,34
2023-04-27T10:09:12.905Z,33.7
2023-04-27T10:10:29.044Z,33.3
2023-04-27T10:11:45.182Z,33.1
2023-04-27T10:13:01.320Z,32.6
2023-04-27T10:14:17.466Z,32.1
2023-04-27T10:15:33.593Z,31.6
2023-04-27T10:16:49.725Z,31.4
2023-04-27T10:18:05.857Z,31.2
2023-04-27T10:19:22.009Z,30.9
2023-04-27T10:20:38.142Z,30.6
2023-04-27T10:21:54.283Z,30.4
2023-04-27T10:23:10.411Z,30.2
2023-04-27T10:24:26.543Z,30.1
2023-04-27T10:25:42.706Z,29.9
2023-04-27T10:26:58.954Z,29.9
2023-04-27T10:28:15.084Z,29.8
2023-04-27T10:29:31.224Z,29.7
2023-04-27T10:30:47.000Z,29.6
2023-04-27T10:32:03.511Z,29.5
2023-04-27T10:33:19.638Z,29.4
2023-04-27T10:34:35.778Z,29.6
2023-04-27T10:35:51.905Z,30.6
2023-04-27T10:37:08.034Z,31.6
2023-04-27T10:38:24.187Z,32.3
2023-04-27T10:39:40.455Z,32.8
2023-04-27T10:40:56.594Z,33
2023-04-27T10:42:12.725Z,33.3
2023-04-27T10:43:28.853Z,33.6
2023-04-27T10:44:45.004Z,33.9
2023-04-27T10:46:01.145Z,34.2
2023-04-27T10:47:17.276Z,34.4
2023-04-27T10:48:33.397Z,34.5
2023-04-27T10:49:49.544Z,34.6
2023-04-27T10:51:05.681Z,34.8
2023-04-27T10:52:21.819Z,34.9
2023-04-27T10:53:37.953Z,34.9
2023-04-27T10:54:54.083Z,34.1
2023-04-27T10:56:10.227Z,33.3
2023-04-27T10:57:26.373Z,32.6
2023-04-27T10:58:42.520Z,32.1
2023-04-27T10:59:58.775Z,31.7
2023-04-27T11:01:14.895Z,31.3
2023-04-27T11:02:31.026Z,30.8
2023-04-27T11:03:47.178Z,30.4
2023-04-27T11:05:03.314Z,30
2023-04-27T11:06:19.457Z,29.7
2023-04-27T11:07:35.593Z,29.5
2023-04-27T11:08:51.730Z,29.2
2023-04-27T11:10:07.865Z,29
2023-04-27T11:11:24.006Z,28.9
2023-04-27T11:12:40.131Z,28.9
2023-04-27T11:13:56.276Z,28.8
2023-04-27T11:15:12.406Z,28.6
2023-04-27T11:16:28.553Z,28.5
2023-04-27T11:17:44.811Z,28.4
2023-04-27T11:19:00.941Z,28.2
2023-04-27T11:20:17.074Z,28.1
2023-04-27T11:21:33.217Z,28.2
2023-04-27T11:22:49.358Z,28.3
2023-04-27T11:24:05.492Z,28.4
2023-04-27T11:25:21.620Z,28.4
2023-04-27T11:26:37.764Z,28.3
2023-04-27T11:27:53.888Z,28.2
2023-04-27T11:29:10.039Z,28.1
2023-04-27T11:30:26.181Z,28.1
2023-04-27T11:31:42.321Z,28
2023-04-27T11:32:58.454Z,27.9
2023-04-27T11:34:14.584Z,27.8
2023-04-27T11:35:30.736Z,27.6
2023-04-27T11:36:46.869Z,27.6
2023-04-27T11:38:03.114Z,27.5
2023-04-27T11:39:19.257Z,27.4
2023-04-27T11:40:35.380Z,27.4
2023-04-27T11:41:51.530Z,27.4
2023-04-27T11:43:07.670Z,27.4
2023-04-27T11:44:23.804Z,27.4
2023-04-27T11:45:39.942Z,27.3
2023-04-27T11:46:56.062Z,27.3
2023-04-27T11:48:12.216Z,27.2
2023-04-27T11:49:28.344Z,27.2
2023-04-27T11:50:44.489Z,27.2
2023-04-27T11:52:00.620Z,27.2
2023-04-27T11:53:16.750Z,27.1
2023-04-27T11:54:32.910Z,27.1
2023-04-27T11:55:49.149Z,27.1
2023-04-27T11:57:05.293Z,27.1
2023-04-27T11:58:21.423Z,27.1
2023-04-27T11:59:37.551Z,27.1
2023-04-27T12:00:53.710Z,27.1
2023-04-27T12:02:09.849Z,27.1
2023-04-27T12:03:25.976Z,27.1
2023-04-27T12:04:42.108Z,27.1
2023-04-27T12:05:58.242Z,27.1
2023-04-27T12:07:14.395Z,27.1
2023-04-27T12:08:30.528Z,27.1
2023-04-27T12:09:46.662Z,27.1
2023-04-27T12:11:02.795Z,27.1
2023-04-27T12:12:18.919Z,27.1
2023-04-27T12:13:35.072Z,27.1
2023-04-27T12:14:51.201Z,27
2023-04-27T12:16:07.466Z,27
2023-04-27T12:17:23.596Z,26.9
2023-04-27T12:18:39.736Z,26.9
2023-04-27T12:19:55.876Z,26.9
2023-04-27T12:21:12.000Z,26.8
2023-04-27T12:22:28.135Z,26.7
2023-04-27T12:23:44.270Z,26.7
2023-04-27T12:25:00.417Z,26.6
2023-04-27T12:26:16.556Z,26.5
2023-04-27T12:27:32.691Z,26.5
2023-04-27T12:28:48.833Z,26.4
2023-04-27T12:30:04.952Z,26.4
2023-04-27T12:31:21.096Z,26.3
2023-04-27T12:32:37.242Z,26.3
2023-04-27T12:33:53.501Z,26.2
2023-04-27T12:35:09.619Z,26.2
2023-04-27T12:36:25.769Z,26.2
2023-04-27T12:37:41.902Z,26.1
2023-04-27T12:38:58.045Z,26.1
2023-04-27T12:40:14.181Z,26
2023-04-27T12:41:30.302Z,26
2023-04-27T12:42:46.441Z,26
2023-04-27T12:44:02.582Z,25.9
2023-04-27T12:45:18.733Z,25.9
2023-04-27T12:46:34.869Z,25.9
2023-04-27T12:47:51.001Z,25.9
2023-04-27T12:49:07.136Z,25.8
2023-04-27T12:50:23.269Z,25.8
2023-04-27T12:51:39.413Z,25.8
2023-04-27T12:52:55.552Z,25.7
2023-04-27T12:54:11.803Z,25.6
2023-04-27T12:55:27.930Z,25.6
2023-04-27T12:56:44.059Z,25.5
2023-04-27T12:58:00.217Z,25.5
2023-04-27T12:59:16.353Z,25.5
2023-04-27T13:00:32.491Z,25.4
2023-04-27T13:01:48.616Z,25.4
2023-04-27T13:03:04.740Z,25.4
2023-04-27T13:04:20.905Z,25.3
2023-04-27T13:05:37.036Z,25.3
2023-04-27T13:06:53.155Z,25.2
2023-04-27T13:08:09.298Z,25.2
2023-04-27T13:09:25.438Z,25.2
2023-04-27T13:10:41.581Z,25.1
2023-04-27T13:11:57.832Z,25.1
2023-04-27T13:13:13.973Z,25
2023-04-27T13:14:30.100Z,25
2023-04-27T13:15:46.235Z,25
2023-04-27T13:17:02.373Z,24.9
2023-04-27T13:18:18.524Z,24.9
2023-04-27T13:19:34.643Z,24.9
2023-04-27T13:20:50.776Z,24.9
2023-04-27T13:22:06.909Z,24.8
2023-04-27T13:23:23.066Z,24.8
2023-04-27T13:24:39.192Z,24.8
2023-04-27T13:25:55.334Z,24.8
2023-04-27T13:27:11.462Z,24.8
2023-04-27T13:28:27.604Z,24.7
2023-04-27T13:29:43.740Z,24.7
2023-04-27T13:30:59.881Z,24.7
2023-04-27T13:32:16.129Z,24.7
2023-04-27T13:33:32.270Z,24.6
2023-04-27T13:34:48.402Z,24.6
2023-04-27T13:36:04.552Z,24.6
2023-04-27T13:37:20.688Z,24.6
2023-04-27T13:38:36.817Z,24.6
2023-04-27T13:39:52.953Z,24.5
2023-04-27T13:41:09.076Z,24.5
2023-04-27T13:42:25.222Z,24.5
2023-04-27T13:43:41.367Z,24.5
2023-04-27T13:44:57.501Z,24.5
2023-04-27T13:46:13.619Z,24.5
2023-04-27T13:47:29.758Z,24.4
2023-04-27T13:48:45.912Z,24.4
2023-04-27T13:50:02.167Z,24.4
2023-04-27T13:51:18.293Z,24.4
2023-04-27T13:52:34.437Z,24.4
2023-04-27T13:53:50.565Z,24.4
2023-04-27T13:55:06.706Z,24.4
2023-04-27T13:56:22.848Z,24.4
2023-04-27T13:57:38.983Z,24.4
2023-04-27T13:58:55.113Z,24.4
2023-04-27T14:00:11.239Z,24.3
2023-04-27T14:01:27.395Z,24.3
2023-04-27T14:02:43.528Z,24.3
2023-04-27T14:03:59.647Z,24.3
2023-04-27T14:05:15.791Z,24.3
2023-04-27T14:06:31.926Z,24.2
2023-04-27T14:07:48.069Z,24.2
2023-04-27T14:09:04.205Z,24.2
2023-04-27T14:10:20.468Z,24.2
2023-04-27T14:11:36.593Z,24.2
2023-04-27T14:12:52.722Z,24.1
2023-04-27T14:14:08.869Z,24.1
2023-04-27T14:15:25.003Z,24
2023-04-27T14:16:41.150Z,24
2023-04-27T14:17:57.272Z,24
2023-04-27T14:19:13.403Z,24
2023-04-27T14:20:29.553Z,23.9
2023-04-27T14:21:45.683Z,23.9
2023-04-27T14:23:01.828Z,23.8
2023-04-27T14:24:17.951Z,23.8
2023-04-27T14:25:34.093Z,23.8
2023-04-27T14:26:50.234Z,23.7
2023-04-27T14:28:06.492Z,23.7
2023-04-27T14:29:22.630Z,23.7
2023-04-27T14:30:38.753Z,23.7
2023-04-27T14:31:54.901Z,23.6
2023-04-27T14:33:11.049Z,23.6
2023-04-27T14:34:27.185Z,23.5
2023-04-27T14:35:43.308Z,23.5
2023-04-27T14:36:59.441Z,23.5
2023-04-27T14:38:15.574Z,23.5
2023-04-27T14:39:31.734Z,23.4
2023-04-27T14:40:47.868Z,23.4
2023-04-27T14:42:03.983Z,23.4
2023-04-27T14:43:20.121Z,23.4
2023-04-27T14:44:36.269Z,23.4
2023-04-27T14:45:52.413Z,23.4
2023-04-27T14:47:08.547Z,23.4
2023-04-27T14:48:24.799Z,23.4
2023-04-27T14:49:40.932Z,23.4
2023-04-27T14:50:57.056Z,23.3
2023-04-27T14:52:13.207Z,23.3
2023-04-27T14:53:29.339Z,23.3
2023-04-27T14:54:45.485Z,23.3
2023-04-27T14:56:01.751Z,23.3
2023-04-27T14:57:17.879Z,23.3
2023-04-27T14:58:34.014Z,23.3
2023-04-27T14:59:50.151Z,23.3
2023-04-27T15:01:06.297Z,23.3
2023-04-27T15:02:22.423Z,23.2
2023-04-27T15:03:38.552Z,23.2
2023-04-27T15:04:54.712Z,23.2
2023-04-27T15:06:10.832Z,23.2
2023-04-27T15:07:26.968Z,23.2
2023-04-27T15:08:43.099Z,23.2
2023-04-27T15:09:59.244Z,23.2
2023-04-27T15:11:15.385Z,23.1
2023-04-27T15:12:31.509Z,23.1
2023-04-27T15:13:47.770Z,23.1
2023-04-27T15:15:03.916Z,23.1
2023-04-27T15:16:20.038Z,23.1
2023-04-27T15:17:36.179Z,23.1
2023-04-27T15:18:52.315Z,23.1
2023-04-27T15:20:08.461Z,23.1
2023-04-27T15:21:24.584Z,23.1
2023-04-27T15:22:40.724Z,23
2023-04-27T15:23:56.868Z,23
2023-04-27T15:25:13.003Z,23
2023-04-27T15:26:29.134Z,23
2023-04-27T15:27:45.267Z,23
2023-04-27T15:29:01.407Z,23
2023-04-27T15:30:17.555Z,23
2023-04-27T15:31:33.801Z,23
2023-04-27T15:32:49.928Z,23
2023-04-27T15:34:06.068Z,23
2023-04-27T15:35:22.209Z,23
2023-04-27T15:36:38.354Z,23
2023-04-27T15:37:54.488Z,22.9
2023-04-27T15:39:10.619Z,22.9
2023-04-27T15:40:26.756Z,23
2023-04-27T15:41:42.875Z,22.9
2023-04-27T15:42:59.025Z,22.9
2023-04-27T15:44:15.160Z,22.9
2023-04-27T15:45:31.300Z,22.9
2023-04-27T15:46:47.424Z,22.9
2023-04-27T15:48:03.563Z,22.9
2023-04-27T15:49:19.717Z,22.9
2023-04-27T15:50:35.850Z,22.9
2023-04-27T15:51:52.099Z,22.9
2023-04-27T15:53:08.238Z,22.9
2023-04-27T15:54:24.368Z,22.9
2023-04-27T15:55:40.526Z,22.9
2023-04-27T15:56:56.651Z,22.9
2023-04-27T15:58:12.785Z,22.9
2023-04-27T15:59:28.921Z,22.9
2023-04-27T16:00:45.058Z,22.8
2023-04-27T16:02:01.204Z,22.8
2023-04-27T16:03:17.321Z,22.8
2023-04-27T16:04:33.458Z,22.8
2023-04-27T16:05:49.601Z,22.9
2023-04-27T16:07:05.727Z,22.8
2023-04-27T16:08:21.883Z,22.8
2023-04-27T16:09:38.127Z,22.8
2023-04-27T16:10:54.272Z,22.8
2023-04-27T16:12:10.394Z,22.8
2023-04-27T16:13:26.544Z,22.8
2023-04-27T16:14:42.685Z,22.8
2023-04-27T16:15:58.808Z,22.8
2023-04-27T16:17:14.938Z,22.8
2023-04-27T16:18:31.084Z,22.8
2023-04-27T16:19:47.214Z,22.7
2023-04-27T16:21:03.353Z,22.7
2023-04-27T16:22:19.500Z,22.7
2023-04-27T16:23:35.625Z,22.7
2023-04-27T16:24:51.761Z,22.7
2023-04-27T16:26:07.893Z,22.7
2023-04-27T16:27:24.038Z,22.7
2023-04-27T16:28:40.177Z,22.7
2023-04-27T16:29:56.424Z,22.7
2023-04-27T16:31:12.565Z,22.7
2023-04-27T16:32:28.691Z,22.6
2023-04-27T16:33:44.837Z,22.6
2023-04-27T16:35:00.974Z,22.6
2023-04-27T16:36:17.105Z,22.6
2023-04-27T16:37:33.249Z,22.6
2023-04-27T16:38:49.371Z,22.6
2023-04-27T16:40:05.534Z,22.6
2023-04-27T16:41:21.650Z,22.6
2023-04-27T16:42:37.790Z,22.6
2023-04-27T16:43:53.923Z,22.6
2023-04-27T16:45:10.060Z,22.6
2023-04-27T16:46:26.210Z,22.6
2023-04-27T16:47:42.465Z,22.6
2023-04-27T16:48:58.595Z,22.5
2023-04-27T16:50:14.720Z,22.5
2023-04-27T16:51:30.867Z,22.5
2023-04-27T16:52:47.019Z,22.5
2023-04-27T16:54:03.149Z,22.5
2023-04-27T16:55:19.269Z,22.5
2023-04-27T16:56:35.402Z,22.5
2023-04-27T16:57:51.547Z,22.5
2023-04-27T16:59:07.695Z,22.5
2023-04-27T17:00:23.834Z,22.4
2023-04-27T17:01:39.953Z,22.4